createdAt,value
2018-08-20T00:00:01.495Z,0.00
2018-08-20T00:01:01.469Z,0.00
2018-08-20T00:02:01.428Z,0.00
2018-08-20T00:03:01.428Z,0.00
2018-08-20T00:04:01.380Z,0.00
2018-08-20T00:05:01.431Z,0.00
2018-08-20T00:06:01.363Z,0.00
2018-08-20T00:07:01.335Z,0.00
2018-08-20T00:08:01.321Z,0.00
2018-08-20T00:09:01.286Z,0.00
2018-08-20T00:10:01.272Z,0.00
2018-08-20T00:11:01.251Z,0.00
2018-08-20T00:12:01.207Z,0.00
2018-08-20T00:13:01.203Z,0.00
2018-08-20T00:14:01.189Z,0.00
2018-08-20T00:15:01.157Z,0.00
2018-08-20T00:16:01.136Z,0.00
2018-08-20T00:17:01.118Z,0.00
2018-08-20T00:18:01.095Z,0.00
2018-08-20T00:19:01.074Z,0.00
2018-08-20T00:20:01.044Z,0.00
2018-08-20T00:21:01.022Z,0.00
2018-08-20T00:22:01.004Z,0.00
2018-08-20T00:23:00.981Z,0.00
2018-08-20T00:24:00.962Z,0.00
2018-08-20T00:25:00.938Z,0.00
2018-08-20T00:26:00.917Z,0.00
2018-08-20T00:27:00.903Z,0.00
2018-08-20T00:28:00.873Z,0.00
2018-08-20T00:29:00.848Z,0.00
2018-08-20T00:30:00.828Z,0.00
2018-08-20T00:31:00.809Z,0.00
2018-08-20T00:32:00.790Z,0.00
2018-08-20T00:33:00.743Z,0.00
2018-08-20T00:34:00.739Z,0.00
2018-08-20T00:35:00.726Z,0.00
2018-08-20T00:36:00.703Z,0.00
2018-08-20T00:37:00.651Z,0.00
2018-08-20T00:38:00.633Z,0.00
2018-08-20T00:39:00.625Z,0.00
2018-08-20T00:40:00.608Z,0.00
2018-08-20T00:41:00.580Z,0.00
2018-08-20T00:42:00.562Z,0.00
2018-08-20T00:43:00.543Z,0.00
2018-08-20T00:44:00.525Z,0.00
2018-08-20T00:45:00.478Z,0.00
2018-08-20T00:46:00.473Z,0.00
2018-08-20T00:47:00.457Z,0.00
2018-08-20T00:48:00.411Z,0.00
2018-08-20T00:49:00.410Z,0.00
2018-08-20T00:50:00.386Z,0.00
2018-08-20T00:51:00.369Z,0.00
2018-08-20T00:52:00.346Z,0.00
2018-08-20T00:53:00.319Z,0.00
2018-08-20T00:54:00.302Z,0.00
2018-08-20T00:55:00.323Z,0.00
2018-08-20T00:56:00.252Z,0.00
2018-08-20T00:57:00.226Z,0.00
2018-08-20T00:58:00.207Z,0.00
2018-08-20T00:59:00.172Z,0.00
2018-08-20T01:00:00.166Z,0.00
2018-08-20T01:01:00.121Z,0.00
2018-08-20T01:02:00.115Z,0.00
2018-08-20T01:03:00.097Z,0.00
2018-08-20T01:04:00.071Z,0.00
2018-08-20T01:05:00.056Z,0.00
2018-08-20T01:06:00.032Z,0.00
2018-08-20T01:07:00.014Z,0.00
2018-08-20T01:07:59.986Z,0.00
2018-08-20T01:08:59.962Z,0.00
2018-08-20T01:09:59.942Z,0.00
2018-08-20T01:10:59.923Z,0.00
2018-08-20T01:11:59.897Z,0.00
2018-08-20T01:12:59.877Z,0.00
2018-08-20T01:13:59.849Z,0.00
2018-08-20T01:14:59.833Z,0.00
2018-08-20T01:15:59.813Z,0.00
2018-08-20T01:16:59.785Z,0.00
2018-08-20T01:17:59.773Z,0.00
2018-08-20T01:18:59.747Z,0.00
2018-08-20T01:19:59.702Z,0.00
2018-08-20T01:20:59.705Z,0.00
2018-08-20T01:21:59.679Z,0.00
2018-08-20T01:22:59.652Z,0.00
2018-08-20T01:23:59.635Z,0.00
2018-08-20T01:24:59.626Z,0.00
2018-08-20T01:25:59.589Z,0.00
2018-08-20T01:26:59.562Z,0.00
2018-08-20T01:27:59.544Z,0.00
2018-08-20T01:28:59.526Z,0.00
2018-08-20T01:29:59.482Z,0.00
2018-08-20T01:30:59.475Z,0.00
2018-08-20T01:31:59.447Z,0.00
2018-08-20T01:32:59.430Z,0.00
2018-08-20T01:33:59.404Z,0.00
2018-08-20T01:34:59.391Z,0.00
2018-08-20T01:35:59.360Z,0.00
2018-08-20T01:36:59.344Z,0.00
2018-08-20T01:37:59.323Z,0.00
2018-08-20T01:38:59.300Z,0.00
2018-08-20T01:39:59.278Z,0.00
2018-08-20T01:40:59.253Z,0.00
2018-08-20T01:41:59.235Z,0.00
2018-08-20T01:42:59.196Z,0.00
2018-08-20T01:43:59.181Z,0.00
2018-08-20T01:44:59.168Z,0.00
2018-08-20T01:45:59.140Z,0.00
2018-08-20T01:46:59.099Z,0.00
2018-08-20T01:47:59.096Z,0.00
2018-08-20T01:48:59.075Z,0.00
2018-08-20T01:49:59.038Z,0.00
2018-08-20T01:50:59.030Z,0.00
2018-08-20T01:51:58.990Z,0.00
2018-08-20T01:52:58.988Z,0.00
2018-08-20T01:53:58.967Z,0.00
2018-08-20T01:54:58.923Z,0.00
2018-08-20T01:55:58.917Z,0.00
2018-08-20T01:56:58.891Z,0.00
2018-08-20T01:57:58.872Z,0.00
2018-08-20T01:58:58.852Z,0.00
2018-08-20T01:59:58.823Z,0.00
2018-08-20T02:00:58.809Z,0.00
2018-08-20T02:01:58.782Z,0.00
2018-08-20T02:02:58.742Z,0.00
2018-08-20T02:03:58.738Z,0.00
2018-08-20T02:04:58.718Z,0.00
2018-08-20T02:05:58.703Z,0.00
2018-08-20T02:06:58.668Z,0.00
2018-08-20T02:07:58.651Z,0.00
2018-08-20T02:08:58.629Z,0.00
2018-08-20T02:09:58.603Z,0.00
2018-08-20T02:10:58.585Z,0.00
2018-08-20T02:11:58.560Z,0.00
2018-08-20T02:12:58.518Z,0.00
2018-08-20T02:13:58.517Z,0.00
2018-08-20T02:14:58.495Z,0.00
2018-08-20T02:15:58.468Z,0.00
2018-08-20T02:16:58.432Z,0.00
2018-08-20T02:17:58.428Z,0.00
2018-08-20T02:18:58.386Z,0.00
2018-08-20T02:19:58.383Z,0.00
2018-08-20T02:20:58.361Z,0.00
2018-08-20T02:21:58.335Z,0.00
2018-08-20T02:22:58.314Z,0.00
2018-08-20T02:23:58.288Z,0.00
2018-08-20T02:24:58.296Z,0.00
2018-08-20T02:25:58.248Z,0.00
2018-08-20T02:26:58.232Z,0.00
2018-08-20T02:27:58.185Z,0.00
2018-08-20T02:28:58.180Z,0.00
2018-08-20T02:29:58.135Z,0.00
2018-08-20T02:30:58.134Z,0.00
2018-08-20T02:31:58.107Z,0.00
2018-08-20T02:32:58.094Z,0.00
2018-08-20T02:33:58.049Z,0.00
2018-08-20T02:34:58.022Z,0.00
2018-08-20T02:35:58.019Z,0.00
2018-08-20T02:36:58.009Z,0.00
2018-08-20T02:37:57.980Z,0.00
2018-08-20T02:38:57.939Z,0.00
2018-08-20T02:39:57.931Z,0.00
2018-08-20T02:40:57.893Z,0.00
2018-08-20T02:41:57.886Z,0.00
2018-08-20T02:42:57.846Z,0.00
2018-08-20T02:43:57.840Z,0.00
2018-08-20T02:44:57.818Z,0.00
2018-08-20T02:45:57.803Z,0.00
2018-08-20T02:46:57.777Z,0.00
2018-08-20T02:47:57.754Z,0.00
2018-08-20T02:48:57.736Z,0.00
2018-08-20T02:49:57.706Z,0.00
2018-08-20T02:50:57.681Z,0.00
2018-08-20T02:51:57.661Z,0.00
2018-08-20T02:52:57.642Z,0.00
2018-08-20T02:53:57.610Z,0.00
2018-08-20T02:54:57.591Z,0.00
2018-08-20T02:55:57.571Z,0.00
2018-08-20T02:56:57.547Z,0.00
2018-08-20T02:57:57.526Z,0.00
2018-08-20T02:58:57.502Z,0.00
2018-08-20T02:59:57.476Z,0.00
2018-08-20T03:00:57.453Z,0.00
2018-08-20T03:01:57.428Z,0.00
2018-08-20T03:02:57.390Z,0.00
2018-08-20T03:03:57.386Z,0.00
2018-08-20T03:04:57.364Z,0.00
2018-08-20T03:05:57.342Z,0.00
2018-08-20T03:06:57.327Z,0.00
2018-08-20T03:07:57.297Z,0.00
2018-08-20T03:08:57.270Z,0.00
2018-08-20T03:09:57.358Z,0.00
2018-08-20T03:10:57.225Z,0.00
2018-08-20T03:11:57.205Z,0.00
2018-08-20T03:12:57.180Z,0.00
2018-08-20T03:13:57.163Z,0.00
2018-08-20T03:14:57.126Z,0.00
2018-08-20T03:15:57.114Z,0.00
2018-08-20T03:16:57.092Z,0.00
2018-08-20T03:17:57.050Z,0.00
2018-08-20T03:18:57.028Z,0.00
2018-08-20T03:19:57.021Z,0.00
2018-08-20T03:20:57.000Z,0.00
2018-08-20T03:21:56.964Z,0.00
2018-08-20T03:22:56.962Z,0.00
2018-08-20T03:23:56.912Z,0.00
2018-08-20T03:24:56.889Z,0.00
2018-08-20T03:25:56.889Z,0.00
2018-08-20T03:26:56.868Z,0.00
2018-08-20T03:27:56.843Z,0.00
2018-08-20T03:28:56.819Z,0.00
2018-08-20T03:29:56.784Z,0.00
2018-08-20T03:30:56.789Z,0.00
2018-08-20T03:31:56.732Z,0.00
2018-08-20T03:32:56.740Z,0.00
2018-08-20T03:33:56.712Z,0.00
2018-08-20T03:34:56.684Z,0.00
2018-08-20T03:35:56.644Z,0.00
2018-08-20T03:36:56.643Z,0.00
2018-08-20T03:37:56.619Z,0.00
2018-08-20T03:38:56.603Z,0.00
2018-08-20T03:39:56.573Z,0.00
2018-08-20T03:40:56.546Z,0.00
2018-08-20T03:41:56.534Z,0.00
2018-08-20T03:42:56.488Z,0.00
2018-08-20T03:43:56.481Z,0.00
2018-08-20T03:44:56.468Z,0.00
2018-08-20T03:45:56.438Z,0.00
2018-08-20T03:46:56.413Z,0.00
2018-08-20T03:47:56.391Z,0.00
2018-08-20T03:48:56.369Z,0.00
2018-08-20T03:49:56.344Z,0.00
2018-08-20T03:50:56.329Z,0.00
2018-08-20T03:51:56.304Z,0.00
2018-08-20T03:52:56.263Z,0.00
2018-08-20T03:53:56.256Z,0.00
2018-08-20T03:54:56.216Z,0.00
2018-08-20T03:55:56.214Z,0.00
2018-08-20T03:56:56.189Z,0.00
2018-08-20T03:57:56.180Z,0.00
2018-08-20T03:58:56.142Z,0.00
2018-08-20T03:59:56.125Z,0.00
2018-08-20T04:00:56.096Z,0.00
2018-08-20T04:01:56.058Z,0.00
2018-08-20T04:02:56.052Z,0.00
2018-08-20T04:03:56.032Z,0.00
2018-08-20T04:04:56.068Z,0.00
2018-08-20T04:05:55.989Z,0.00
2018-08-20T04:06:55.965Z,0.00
2018-08-20T04:07:55.934Z,0.00
2018-08-20T04:08:55.921Z,0.00
2018-08-20T04:09:55.894Z,0.00
2018-08-20T04:10:55.879Z,0.00
2018-08-20T04:11:55.845Z,0.00
2018-08-20T04:12:55.822Z,0.00
2018-08-20T04:13:55.803Z,0.00
2018-08-20T04:14:55.761Z,0.00
2018-08-20T04:15:55.756Z,0.00
2018-08-20T04:16:55.739Z,0.00
2018-08-20T04:17:55.712Z,0.00
2018-08-20T04:18:55.696Z,0.00
2018-08-20T04:19:55.665Z,0.00
2018-08-20T04:20:55.621Z,0.00
2018-08-20T04:21:55.627Z,0.00
2018-08-20T04:22:55.607Z,0.00
2018-08-20T04:23:55.578Z,0.00
2018-08-20T04:24:55.556Z,0.00
2018-08-20T04:25:55.526Z,0.00
2018-08-20T04:26:55.507Z,0.00
2018-08-20T04:27:55.484Z,0.00
2018-08-20T04:28:55.465Z,0.00
2018-08-20T04:29:55.423Z,0.00
2018-08-20T04:30:55.402Z,0.00
2018-08-20T04:31:55.393Z,0.00
2018-08-20T04:32:55.374Z,0.00
2018-08-20T04:33:55.353Z,0.00
2018-08-20T04:34:55.326Z,0.00
2018-08-20T04:35:55.301Z,0.00
2018-08-20T04:36:55.287Z,0.00
2018-08-20T04:37:55.259Z,0.00
2018-08-20T04:38:55.224Z,0.00
2018-08-20T04:39:55.211Z,0.00
2018-08-20T04:40:55.188Z,0.00
2018-08-20T04:41:55.170Z,0.00
2018-08-20T04:42:55.146Z,0.00
2018-08-20T04:43:55.128Z,0.00
2018-08-20T04:44:55.100Z,0.00
2018-08-20T04:45:55.054Z,0.00
2018-08-20T04:46:55.052Z,0.00
2018-08-20T04:47:55.011Z,0.00
2018-08-20T04:48:55.007Z,0.00
2018-08-20T04:49:55.045Z,0.00
2018-08-20T04:50:55.193Z,0.00
2018-08-20T04:51:54.938Z,0.00
2018-08-20T04:52:54.911Z,0.00
2018-08-20T04:53:54.897Z,0.00
2018-08-20T04:54:54.876Z,0.00
2018-08-20T04:55:54.847Z,0.00
2018-08-20T04:56:54.823Z,0.00
2018-08-20T04:57:54.804Z,0.00
2018-08-20T04:58:54.774Z,0.00
2018-08-20T04:59:54.756Z,0.00
2018-08-20T05:00:54.731Z,0.00
2018-08-20T05:01:54.709Z,0.00
2018-08-20T05:02:54.692Z,0.00
2018-08-20T05:03:54.708Z,0.00
2018-08-20T05:04:54.645Z,0.00
2018-08-20T05:05:54.620Z,0.00
2018-08-20T05:06:54.596Z,0.00
2018-08-20T05:07:54.576Z,0.00
2018-08-20T05:08:54.558Z,0.00
2018-08-20T05:09:54.544Z,0.00
2018-08-20T05:10:54.506Z,0.00
2018-08-20T05:11:54.484Z,0.00
2018-08-20T05:12:54.442Z,0.00
2018-08-20T05:13:54.436Z,0.00
2018-08-20T05:14:54.416Z,0.00
2018-08-20T05:15:54.393Z,0.00
2018-08-20T05:16:54.351Z,0.00
2018-08-20T05:17:54.332Z,0.00
2018-08-20T05:18:54.460Z,0.00
2018-08-20T05:19:54.299Z,0.00
2018-08-20T05:20:54.258Z,0.00
2018-08-20T05:21:54.250Z,0.00
2018-08-20T05:22:54.236Z,0.00
2018-08-20T05:23:54.206Z,0.00
2018-08-20T05:24:54.186Z,0.00
2018-08-20T05:25:54.165Z,0.00
2018-08-20T05:26:54.123Z,0.00
2018-08-20T05:27:54.114Z,0.00
2018-08-20T05:28:54.099Z,0.00
2018-08-20T05:29:54.054Z,0.00
2018-08-20T05:30:54.038Z,0.00
2018-08-20T05:31:54.024Z,0.00
2018-08-20T05:32:54.005Z,0.00
2018-08-20T05:33:53.986Z,0.00
2018-08-20T05:34:53.957Z,0.00
2018-08-20T05:35:53.942Z,0.00
2018-08-20T05:36:53.906Z,0.00
2018-08-20T05:37:53.892Z,0.00
2018-08-20T05:38:53.867Z,0.00
2018-08-20T05:39:53.847Z,0.00
2018-08-20T05:40:53.822Z,0.00
2018-08-20T05:41:53.796Z,0.00
2018-08-20T05:42:53.772Z,0.00
2018-08-20T05:43:53.758Z,0.00
2018-08-20T05:44:53.806Z,0.00
2018-08-20T05:45:53.704Z,0.00
2018-08-20T05:46:53.684Z,0.00
2018-08-20T05:47:53.640Z,0.00
2018-08-20T05:48:53.639Z,0.00
2018-08-20T05:49:53.614Z,0.00
2018-08-20T05:50:53.589Z,0.00
2018-08-20T05:51:53.568Z,0.00
2018-08-20T05:52:53.546Z,0.00
2018-08-20T05:53:53.507Z,0.00
2018-08-20T05:54:53.495Z,0.00
2018-08-20T05:55:53.479Z,0.00
2018-08-20T05:56:53.453Z,0.00
2018-08-20T05:57:53.436Z,0.00
2018-08-20T05:58:53.408Z,0.00
2018-08-20T05:59:53.382Z,0.00
2018-08-20T06:00:53.364Z,0.00
2018-08-20T06:01:53.319Z,0.00
2018-08-20T06:02:53.296Z,0.00
2018-08-20T06:03:53.290Z,0.00
2018-08-20T06:04:53.268Z,0.00
2018-08-20T06:05:53.247Z,0.00
2018-08-20T06:06:53.229Z,0.00
2018-08-20T06:07:53.253Z,0.00
2018-08-20T06:08:53.178Z,0.00
2018-08-20T06:09:53.155Z,0.00
2018-08-20T06:10:53.124Z,0.00
2018-08-20T06:11:53.105Z,0.00
2018-08-20T06:12:53.084Z,0.00
2018-08-20T06:13:53.061Z,0.00
2018-08-20T06:14:53.022Z,0.00
2018-08-20T06:15:53.012Z,0.00
2018-08-20T06:16:52.984Z,0.00
2018-08-20T06:17:52.966Z,0.00
2018-08-20T06:18:52.939Z,0.00
2018-08-20T06:19:52.918Z,0.00
2018-08-20T06:20:52.905Z,0.00
2018-08-20T06:21:52.860Z,0.00
2018-08-20T06:22:52.859Z,0.00
2018-08-20T06:23:52.811Z,0.00
2018-08-20T06:24:52.823Z,0.00
2018-08-20T06:25:52.790Z,0.00
2018-08-20T06:26:52.761Z,0.00
2018-08-20T06:27:52.739Z,0.00
2018-08-20T06:28:52.712Z,0.00
2018-08-20T06:29:52.686Z,0.00
2018-08-20T06:30:52.665Z,0.00
2018-08-20T06:31:52.645Z,0.00
2018-08-20T06:32:52.617Z,0.00
2018-08-20T06:33:52.600Z,0.00
2018-08-20T06:34:52.562Z,0.00
2018-08-20T06:35:52.577Z,0.00
2018-08-20T06:36:52.525Z,0.00
2018-08-20T06:37:52.484Z,0.00
2018-08-20T06:38:52.463Z,0.00
2018-08-20T06:39:52.460Z,0.00
2018-08-20T06:40:52.441Z,0.00
2018-08-20T06:41:52.394Z,0.00
2018-08-20T06:42:52.389Z,0.00
2018-08-20T06:43:52.350Z,0.00
2018-08-20T06:44:52.322Z,0.00
2018-08-20T06:45:52.317Z,0.00
2018-08-20T06:46:52.292Z,0.00
2018-08-20T06:47:52.270Z,0.00
2018-08-20T06:48:52.250Z,0.00
2018-08-20T06:49:52.210Z,0.00
2018-08-20T06:50:52.186Z,0.00
2018-08-20T06:51:52.182Z,0.00
2018-08-20T06:52:52.154Z,0.00
2018-08-20T06:53:52.131Z,0.00
2018-08-20T06:54:52.112Z,0.00
2018-08-20T06:55:52.084Z,0.00
2018-08-20T06:56:52.056Z,0.00
2018-08-20T06:57:52.045Z,0.00
2018-08-20T06:58:52.017Z,0.00
2018-08-20T06:59:52.000Z,0.00
2018-08-20T07:00:51.976Z,0.00
2018-08-20T07:01:51.950Z,0.00
2018-08-20T07:02:51.923Z,0.00
2018-08-20T07:03:51.907Z,0.00
2018-08-20T07:04:51.877Z,0.00
2018-08-20T07:05:51.851Z,0.00
2018-08-20T07:06:51.832Z,0.00
2018-08-20T07:07:51.803Z,0.00
2018-08-20T07:08:51.782Z,0.00
2018-08-20T07:09:51.767Z,0.00
2018-08-20T07:10:51.717Z,0.00
2018-08-20T07:11:51.788Z,0.00
2018-08-20T07:12:51.688Z,0.00
2018-08-20T07:13:51.666Z,0.00
2018-08-20T07:14:51.644Z,0.00
2018-08-20T07:15:51.621Z,0.00
2018-08-20T07:16:51.598Z,0.00
2018-08-20T07:17:51.549Z,0.00
2018-08-20T07:18:51.549Z,0.00
2018-08-20T07:19:51.587Z,0.00
2018-08-20T07:20:51.509Z,0.00
2018-08-20T07:21:51.482Z,0.00
2018-08-20T07:22:51.570Z,0.00
2018-08-20T07:23:51.504Z,0.00
2018-08-20T07:24:51.387Z,0.00
2018-08-20T07:25:51.364Z,0.00
2018-08-20T07:26:51.348Z,0.00
2018-08-20T07:27:51.344Z,0.00
2018-08-20T07:28:51.310Z,0.00
2018-08-20T07:29:51.295Z,0.00
2018-08-20T07:30:51.266Z,0.00
2018-08-20T07:31:51.244Z,0.00
2018-08-20T07:32:51.221Z,0.00
2018-08-20T07:33:51.200Z,0.00
2018-08-20T07:34:51.180Z,0.00
2018-08-20T07:35:51.147Z,0.00
2018-08-20T07:36:51.106Z,0.00
2018-08-20T07:37:51.105Z,0.00
2018-08-20T07:38:51.082Z,0.00
2018-08-20T07:39:51.058Z,0.00
2018-08-20T07:40:51.034Z,0.00
2018-08-20T07:41:51.021Z,0.00
2018-08-20T07:42:50.969Z,0.00
2018-08-20T07:43:50.966Z,0.00
2018-08-20T07:44:50.927Z,0.00
2018-08-20T07:45:50.927Z,0.00
2018-08-20T07:46:50.900Z,0.00
2018-08-20T07:47:50.867Z,0.00
2018-08-20T07:48:50.831Z,0.00
2018-08-20T07:49:50.822Z,0.00
2018-08-20T07:50:50.810Z,0.00
2018-08-20T07:51:50.833Z,0.00
2018-08-20T07:52:50.758Z,0.00
2018-08-20T07:55:34.485Z,0.00
2018-08-20T07:56:34.415Z,0.00
2018-08-20T07:57:34.377Z,0.00
2018-08-20T07:58:34.366Z,0.00
2018-08-20T07:59:34.342Z,0.00
2018-08-20T08:00:34.322Z,0.00
2018-08-20T08:01:34.298Z,0.00
2018-08-20T08:02:34.277Z,0.00
2018-08-20T08:03:34.232Z,0.00
2018-08-20T08:04:34.230Z,0.00
2018-08-20T08:05:34.206Z,0.00
2018-08-20T08:06:34.183Z,0.00
2018-08-20T08:07:34.159Z,0.00
2018-08-20T08:08:34.168Z,0.00
2018-08-20T08:09:34.116Z,0.00
2018-08-20T08:10:34.087Z,0.00
2018-08-20T08:11:34.061Z,0.00
2018-08-20T08:12:34.043Z,0.00
2018-08-20T08:13:34.020Z,0.00
2018-08-20T08:14:33.990Z,0.00
2018-08-20T08:15:33.978Z,0.00
2018-08-20T08:16:33.944Z,0.00
2018-08-20T08:17:33.906Z,0.00
2018-08-20T08:18:33.899Z,0.00
2018-08-20T08:19:33.880Z,0.00
2018-08-20T08:20:33.861Z,0.00
2018-08-20T08:21:33.816Z,0.00
2018-08-20T08:22:33.809Z,0.00
2018-08-20T08:23:33.763Z,0.00
2018-08-20T08:24:33.750Z,0.00
2018-08-20T08:25:33.743Z,0.00
2018-08-20T08:26:33.789Z,0.00
2018-08-20T08:27:33.691Z,0.00
2018-08-20T08:28:33.671Z,0.00
2018-08-20T08:29:33.643Z,0.00
2018-08-20T08:30:33.624Z,0.00
2018-08-20T08:31:33.592Z,0.00
2018-08-20T08:32:33.551Z,0.00
2018-08-20T08:33:33.556Z,0.00
2018-08-20T08:34:33.509Z,0.00
2018-08-20T08:35:33.507Z,0.00
2018-08-20T08:36:33.486Z,0.00
2018-08-20T08:37:33.440Z,0.00
2018-08-20T08:38:33.436Z,0.00
2018-08-20T08:39:33.394Z,0.00
2018-08-20T08:40:33.389Z,0.00
2018-08-20T08:41:33.345Z,0.00
2018-08-20T08:42:33.336Z,0.00
2018-08-20T08:43:33.313Z,0.00
2018-08-20T08:44:33.290Z,0.00
2018-08-20T08:45:33.265Z,0.00
2018-08-20T08:46:33.228Z,0.00
2018-08-20T08:47:33.229Z,0.00
2018-08-20T08:48:33.185Z,0.00
2018-08-20T08:49:33.176Z,0.00
2018-08-20T08:50:33.149Z,0.00
2018-08-20T08:51:33.136Z,0.00
2018-08-20T08:52:33.106Z,0.00
2018-08-20T08:53:33.077Z,0.00
2018-08-20T08:54:33.054Z,0.00
2018-08-20T08:55:33.036Z,0.00
2018-08-20T08:56:33.016Z,0.00
2018-08-20T08:57:32.989Z,0.00
2018-08-20T08:58:32.942Z,0.00
2018-08-20T08:59:32.933Z,0.00
2018-08-20T09:00:32.981Z,0.00
2018-08-20T09:01:32.889Z,0.00
2018-08-20T09:02:32.846Z,0.00
2018-08-20T09:03:32.850Z,4.00
2018-08-20T09:04:32.817Z,0.00
2018-08-20T09:05:32.792Z,4.00
2018-08-20T09:06:32.755Z,4.00
2018-08-20T09:07:32.730Z,4.00
2018-08-20T09:08:32.728Z,8.00
2018-08-20T09:09:32.701Z,8.00
2018-08-20T09:10:32.676Z,8.00
2018-08-20T09:11:32.656Z,12.00
2018-08-20T09:12:32.629Z,16.00
2018-08-20T09:13:32.658Z,20.00
2018-08-20T09:14:32.586Z,24.00
2018-08-20T09:15:32.862Z,32.00
2018-08-20T09:16:32.538Z,40.00
2018-08-20T09:17:32.510Z,52.00
2018-08-20T09:18:32.487Z,64.00
2018-08-20T09:19:32.469Z,76.00
2018-08-20T09:20:32.465Z,96.00
2018-08-20T09:21:32.417Z,120.00
2018-08-20T09:22:32.372Z,144.00
2018-08-20T09:23:32.374Z,172.00
2018-08-20T09:24:32.343Z,204.00
2018-08-20T09:25:32.324Z,240.00
2018-08-20T09:26:32.303Z,276.00
2018-08-20T09:27:32.255Z,316.00
2018-08-20T09:28:32.235Z,360.00
2018-08-20T09:29:32.232Z,408.00
2018-08-20T09:30:32.199Z,460.00
2018-08-20T09:31:32.182Z,516.00
2018-08-20T09:32:32.154Z,572.00
2018-08-20T09:33:32.127Z,636.00
2018-08-20T09:34:32.106Z,708.00
2018-08-20T09:35:32.083Z,780.00
2018-08-20T09:36:32.059Z,852.00
2018-08-20T09:37:32.035Z,932.00
2018-08-20T09:38:32.012Z,1016.00
2018-08-20T09:39:31.995Z,1108.00
2018-08-20T09:40:31.971Z,1200.00
2018-08-20T09:41:31.927Z,1296.00
2018-08-20T09:42:31.918Z,1404.00
2018-08-20T09:43:31.896Z,1528.00
2018-08-20T09:44:31.871Z,1672.00
2018-08-20T09:45:31.842Z,1808.00
2018-08-20T09:46:31.826Z,1932.00
2018-08-20T09:47:31.807Z,2056.00
2018-08-20T09:48:31.776Z,2200.00
2018-08-20T09:49:31.754Z,2344.00
2018-08-20T09:50:31.730Z,2500.00
2018-08-20T09:51:31.704Z,2656.00
2018-08-20T09:52:31.656Z,2812.00
2018-08-20T09:53:31.690Z,2952.00
2018-08-20T09:54:31.630Z,3108.00
2018-08-20T09:55:31.607Z,3252.00
2018-08-20T09:56:31.586Z,3408.00
2018-08-20T09:57:31.566Z,3572.00
2018-08-20T09:58:31.540Z,3728.00
2018-08-20T09:59:31.522Z,3932.00
2018-08-20T10:00:31.491Z,4076.00
2018-08-20T10:01:31.471Z,4248.00
2018-08-20T10:02:31.451Z,4404.00
2018-08-20T10:03:31.409Z,4564.00
2018-08-20T10:04:31.407Z,4748.00
2018-08-20T10:05:31.361Z,4920.00
2018-08-20T10:06:31.329Z,5136.00
2018-08-20T10:07:31.363Z,5344.00
2018-08-20T10:08:31.321Z,5532.00
2018-08-20T10:09:31.312Z,5724.00
2018-08-20T10:10:31.266Z,5900.00
2018-08-20T10:11:31.239Z,6044.00
2018-08-20T10:12:31.233Z,6192.00
2018-08-20T10:13:31.196Z,6340.00
2018-08-20T10:14:31.174Z,6480.00
2018-08-20T10:15:31.151Z,6612.00
2018-08-20T10:16:31.134Z,6752.00
2018-08-20T10:17:31.091Z,6944.00
2018-08-20T10:18:31.118Z,7112.00
2018-08-20T10:19:31.049Z,7336.00
2018-08-20T10:20:31.041Z,7576.00
2018-08-20T10:21:31.028Z,7756.00
2018-08-20T10:22:31.006Z,8052.00
2018-08-20T10:23:30.982Z,8312.00
2018-08-20T10:24:30.964Z,8600.00
2018-08-20T10:25:30.944Z,8780.00
2018-08-20T10:26:30.913Z,8916.00
2018-08-20T10:27:30.894Z,9228.00
2018-08-20T10:28:30.877Z,9552.00
2018-08-20T10:29:30.856Z,9792.00
2018-08-20T10:30:30.836Z,9576.00
2018-08-20T10:31:30.816Z,9672.00
2018-08-20T10:32:30.800Z,9836.00
2018-08-20T10:33:30.776Z,10024.00
2018-08-20T10:34:30.755Z,10108.00
2018-08-20T10:35:30.728Z,10224.00
2018-08-20T10:36:30.711Z,10536.00
2018-08-20T10:37:30.708Z,10812.00
2018-08-20T10:38:30.667Z,11072.00
2018-08-20T10:39:30.647Z,11044.00
2018-08-20T10:40:30.624Z,10984.00
2018-08-20T10:41:30.609Z,11236.00
2018-08-20T10:42:30.586Z,11660.00
2018-08-20T10:43:30.570Z,12296.00
2018-08-20T10:44:30.545Z,12820.00
2018-08-20T10:45:30.532Z,12932.00
2018-08-20T10:46:30.489Z,12644.00
2018-08-20T10:47:30.467Z,13000.00
2018-08-20T10:48:30.446Z,13164.00
2018-08-20T10:49:30.434Z,12704.00
2018-08-20T10:50:30.421Z,12540.00
2018-08-20T10:51:30.382Z,12536.00
2018-08-20T10:52:30.386Z,12852.00
2018-08-20T10:53:30.344Z,13004.00
2018-08-20T10:54:30.325Z,13036.00
2018-08-20T10:55:30.302Z,4316.00
2018-08-20T10:56:30.301Z,9480.00
2018-08-20T10:57:30.280Z,9564.00
2018-08-20T10:58:30.245Z,10064.00
2018-08-20T10:59:30.237Z,12596.00
2018-08-20T11:00:30.221Z,12620.00
2018-08-20T11:01:30.204Z,12644.00
2018-08-20T11:02:30.174Z,12708.00
2018-08-20T11:03:30.165Z,12896.00
2018-08-20T11:05:03.346Z,12992.00
2018-08-20T11:05:30.118Z,13108.00
2018-08-20T11:06:30.097Z,13232.00
2018-08-20T11:07:30.077Z,13248.00
2018-08-20T11:08:30.035Z,13288.00
2018-08-20T11:09:30.015Z,13360.00
2018-08-20T11:10:30.019Z,13696.00
2018-08-20T11:11:29.991Z,14020.00
2018-08-20T11:12:29.978Z,13888.00
2018-08-20T11:13:29.961Z,13988.00
2018-08-20T11:14:29.934Z,14428.00
2018-08-20T11:15:29.921Z,15212.00
2018-08-20T11:16:29.896Z,16896.00
2018-08-20T11:17:29.875Z,17568.00
2018-08-20T11:18:29.902Z,5164.00
2018-08-20T11:19:29.850Z,5136.00
2018-08-20T11:20:29.801Z,5408.00
2018-08-20T11:21:29.786Z,5208.00
2018-08-20T11:22:29.785Z,5140.00
2018-08-20T11:23:29.764Z,5244.00
2018-08-20T11:24:29.721Z,5840.00
2018-08-20T11:25:29.725Z,6060.00
2018-08-20T11:26:29.701Z,5920.00
2018-08-20T11:27:29.709Z,6488.00
2018-08-20T11:28:29.659Z,5880.00
2018-08-20T11:29:29.646Z,6708.00
2018-08-20T11:30:29.620Z,5484.00
2018-08-20T11:31:29.596Z,21248.00
2018-08-20T11:32:29.579Z,22400.00
2018-08-20T11:33:29.543Z,23968.00
2018-08-20T11:34:29.539Z,22624.00
2018-08-20T11:35:29.520Z,22304.00
2018-08-20T11:36:29.548Z,24000.00
2018-08-20T11:37:29.484Z,21760.00
2018-08-20T11:38:29.464Z,18176.00
2018-08-20T11:39:29.442Z,17792.00
2018-08-20T11:40:29.425Z,17024.00
2018-08-20T11:41:29.404Z,16288.00
2018-08-20T11:42:29.384Z,16160.00
2018-08-20T11:43:29.366Z,15968.00
2018-08-20T11:44:29.324Z,15732.00
2018-08-20T11:45:29.328Z,15684.00
2018-08-20T11:46:29.312Z,15668.00
2018-08-20T11:47:29.286Z,15624.00
2018-08-20T11:48:29.250Z,15684.00
2018-08-20T11:49:29.248Z,15588.00
2018-08-20T11:50:29.230Z,15708.00
2018-08-20T11:51:29.216Z,15784.00
2018-08-20T11:52:29.201Z,15908.00
2018-08-20T11:53:29.177Z,16160.00
2018-08-20T11:54:29.195Z,16256.00
2018-08-20T11:55:29.137Z,16128.00
2018-08-20T11:56:29.121Z,21080.00
2018-08-20T11:57:29.103Z,8208.00
2018-08-20T11:58:29.085Z,7564.00
2018-08-20T11:59:29.046Z,16672.00
2018-08-20T12:00:29.050Z,16576.00
2018-08-20T12:01:29.008Z,16640.00
2018-08-20T12:02:29.007Z,16672.00
2018-08-20T12:03:28.976Z,16704.00
2018-08-20T12:04:28.980Z,16704.00
2018-08-20T12:05:29.036Z,16704.00
2018-08-20T12:06:28.941Z,16672.00
2018-08-20T12:07:29.075Z,16832.00
2018-08-20T12:08:28.911Z,16864.00
2018-08-20T12:09:28.884Z,9592.00
2018-08-20T12:10:28.864Z,11304.00
2018-08-20T12:11:28.853Z,13620.00
2018-08-20T12:12:28.814Z,17024.00
2018-08-20T12:13:28.819Z,18912.00
2018-08-20T12:14:28.797Z,18880.00
2018-08-20T12:15:28.761Z,18176.00
2018-08-20T12:16:28.774Z,18144.00
2018-08-20T12:17:28.752Z,18240.00
2018-08-20T12:18:28.731Z,18400.00
2018-08-20T12:19:28.721Z,18656.00
2018-08-20T12:20:28.699Z,19136.00
2018-08-20T12:21:28.684Z,19392.00
2018-08-20T12:22:28.668Z,19456.00
2018-08-20T12:23:28.649Z,19808.00
2018-08-20T12:24:28.628Z,12744.00
2018-08-20T12:25:28.617Z,15052.00
2018-08-20T12:26:28.596Z,16288.00
2018-08-20T12:27:28.561Z,19808.00
2018-08-20T12:28:28.569Z,25248.00
2018-08-20T12:29:28.551Z,28608.00
2018-08-20T12:30:28.533Z,31776.00
2018-08-20T12:31:28.495Z,30816.00
2018-08-20T12:32:28.508Z,12604.00
2018-08-20T12:33:28.479Z,12316.00
2018-08-20T12:34:28.463Z,12052.00
2018-08-20T12:35:28.455Z,21408.00
2018-08-20T12:36:28.433Z,22944.00
2018-08-20T12:37:28.415Z,22048.00
2018-08-20T12:38:28.399Z,8052.00
2018-08-20T12:39:28.385Z,11956.00
2018-08-20T12:40:28.554Z,8636.00
2018-08-20T12:41:28.349Z,9592.00
2018-08-20T12:42:28.340Z,9860.00
2018-08-20T12:43:28.319Z,10976.00
2018-08-20T12:44:28.305Z,29440.00
2018-08-20T12:45:28.296Z,28256.00
2018-08-20T12:46:28.278Z,27360.00
2018-08-20T12:47:28.243Z,28512.00
2018-08-20T12:48:28.250Z,27712.00
2018-08-20T12:49:28.229Z,26208.00
2018-08-20T12:50:28.206Z,23776.00
2018-08-20T12:51:28.198Z,22176.00
2018-08-20T12:52:28.180Z,21888.00
2018-08-20T12:53:28.166Z,22240.00
2018-08-20T12:54:28.152Z,22496.00